createdAt,value
2022-09-20T00:01:34.223Z,0.80
2022-09-20T00:04:06.902Z,0.60
2022-09-20T00:09:06.594Z,0.55
2022-09-20T00:11:37.833Z,0.60
2022-09-20T00:14:09.446Z,0.60
2022-09-20T00:16:40.893Z,0.70
2022-09-20T00:19:10.406Z,0.50
2022-09-20T00:21:40.143Z,0.50
2022-09-20T00:24:08.627Z,0.73
2022-09-20T00:26:37.078Z,0.60
2022-09-20T00:29:06.594Z,0.70
2022-09-20T00:31:35.737Z,0.50
2022-09-20T00:34:21.778Z,0.90
2022-09-20T00:36:51.507Z,0.50
2022-09-20T00:39:19.856Z,0.68
2022-09-20T00:41:48.251Z,0.60
2022-09-20T00:44:47.718Z,0.57
2022-09-20T00:47:28.434Z,0.52
2022-09-20T00:50:06.715Z,0.75
2022-09-20T00:52:38.255Z,0.70
2022-09-20T00:55:09.861Z,0.70
2022-09-20T00:57:39.276Z,0.90
2022-09-20T01:00:12.583Z,0.63
2022-09-20T01:02:46.954Z,0.55
2022-09-20T01:05:16.863Z,0.85
2022-09-20T01:07:49.380Z,1.08
2022-09-20T01:10:17.816Z,0.70
2022-09-20T01:12:47.901Z,0.60
2022-09-20T01:15:17.031Z,0.50
2022-09-20T01:17:51.425Z,0.60
2022-09-20T01:20:24.546Z,0.40
2022-09-20T01:23:44.962Z,0.60
2022-09-20T01:27:00.864Z,0.70
2022-09-20T01:30:02.485Z,0.50
2022-09-20T01:32:47.094Z,0.68
2022-09-20T01:35:19.272Z,0.50
2022-09-20T01:38:03.363Z,0.50
2022-09-20T01:40:40.518Z,0.63
2022-09-20T01:43:19.388Z,0.90
2022-09-20T01:45:50.708Z,0.60
2022-09-20T01:48:32.401Z,0.95
2022-09-20T01:51:37.645Z,0.55
2022-09-20T01:54:52.286Z,0.77
2022-09-20T01:58:04.990Z,0.50
2022-09-20T02:00:40.069Z,0.70
2022-09-20T02:04:05.286Z,0.80
2022-09-20T02:07:09.746Z,0.70
2022-09-20T02:10:32.162Z,0.60
2022-09-20T02:13:04.210Z,1.13
2022-09-20T02:16:12.242Z,0.50
2022-09-20T02:19:08.100Z,0.90
2022-09-20T02:21:45.583Z,0.60
2022-09-20T02:24:29.450Z,0.80
2022-09-20T02:27:13.302Z,0.70
2022-09-20T02:29:50.607Z,0.65
2022-09-20T02:32:33.309Z,0.60
2022-09-20T02:35:17.917Z,0.52
2022-09-20T02:38:04.224Z,0.80
2022-09-20T02:41:01.956Z,0.73
2022-09-20T02:43:41.521Z,0.60
2022-09-20T02:46:19.168Z,0.60
2022-09-20T02:48:55.841Z,0.70
2022-09-20T02:51:34.193Z,0.57
2022-09-20T02:54:14.008Z,0.85
2022-09-20T02:56:53.336Z,0.75
2022-09-20T02:59:33.462Z,0.40
2022-09-20T03:02:16.250Z,0.60
2022-09-20T03:05:03.429Z,0.50
2022-09-20T03:07:43.885Z,0.55
2022-09-20T03:10:21.274Z,0.70
2022-09-20T03:13:23.801Z,0.60
2022-09-20T03:16:06.433Z,0.57
2022-09-20T03:18:50.048Z,0.70
2022-09-20T03:21:37.771Z,0.47
2022-09-20T03:24:19.151Z,0.60
2022-09-20T03:26:56.784Z,0.50
2022-09-20T03:29:47.331Z,0.50
2022-09-20T03:32:35.590Z,0.50
2022-09-20T03:35:29.420Z,0.60
2022-09-20T03:38:20.652Z,0.63
2022-09-20T03:41:23.253Z,0.70
2022-09-20T03:44:11.957Z,0.60
2022-09-20T03:46:46.970Z,0.50
2022-09-20T03:49:48.075Z,0.60
2022-09-20T03:52:40.527Z,0.73
2022-09-20T03:55:54.207Z,0.70
2022-09-20T03:58:41.300Z,0.52
2022-09-20T04:01:33.066Z,0.57
2022-09-20T04:04:12.826Z,0.60
2022-09-20T04:07:02.759Z,0.88
2022-09-20T04:10:02.304Z,0.52
2022-09-20T04:12:44.390Z,0.50
2022-09-20T04:15:28.462Z,0.65
2022-09-20T04:18:04.605Z,0.77
2022-09-20T04:20:44.313Z,0.43
2022-09-20T04:23:25.870Z,0.60
2022-09-20T04:25:54.250Z,0.63
2022-09-20T04:28:30.221Z,0.77
2022-09-20T04:31:11.100Z,0.52
2022-09-20T04:33:49.557Z,0.50
2022-09-20T04:36:56.173Z,0.60
2022-09-20T04:39:39.414Z,0.50
2022-09-20T04:43:02.382Z,0.75
2022-09-20T04:46:31.108Z,0.50
2022-09-20T04:49:53.496Z,0.60
2022-09-20T04:53:22.617Z,0.50
2022-09-20T04:56:01.935Z,0.60
2022-09-20T04:58:49.268Z,0.60
2022-09-20T05:02:15.661Z,1.20
2022-09-20T05:05:35.865Z,0.65
2022-09-20T05:08:51.180Z,0.65
2022-09-20T05:12:01.757Z,0.60
2022-09-20T05:15:08.140Z,0.77
2022-09-20T05:18:15.175Z,0.73
2022-09-20T05:20:53.951Z,0.90
2022-09-20T05:24:02.990Z,0.68
2022-09-20T05:26:46.254Z,0.90
2022-09-20T05:29:21.563Z,0.77
2022-09-20T05:32:00.430Z,0.90
2022-09-20T05:34:42.389Z,0.70
2022-09-20T05:37:25.407Z,1.20
2022-09-20T05:40:06.066Z,1.00
2022-09-20T05:42:44.259Z,1.30
2022-09-20T05:45:35.221Z,0.90
2022-09-20T05:48:14.973Z,0.90
2022-09-20T05:50:55.750Z,0.90
2022-09-20T05:53:51.809Z,0.80
2022-09-20T05:56:42.994Z,0.85
2022-09-20T05:59:28.935Z,0.80
2022-09-20T06:02:18.971Z,0.82
2022-09-20T06:04:59.037Z,0.88
2022-09-20T06:07:43.097Z,1.92
2022-09-20T06:10:31.093Z,1.10
2022-09-20T06:13:12.849Z,0.90
2022-09-20T06:15:49.661Z,1.08
2022-09-20T06:18:28.821Z,0.95
2022-09-20T06:21:12.052Z,1.60
2022-09-20T06:23:40.388Z,1.15
2022-09-20T06:26:17.360Z,1.08
2022-09-20T06:28:54.195Z,1.20
2022-09-20T06:31:24.869Z,0.77
2022-09-20T06:33:58.509Z,1.30
2022-09-20T06:36:49.753Z,2.35
2022-09-20T06:39:46.651Z,1.23
2022-09-20T06:42:14.875Z,1.67
2022-09-20T06:44:44.460Z,0.70
2022-09-20T06:47:14.257Z,0.90
2022-09-20T06:49:46.945Z,1.10
2022-09-20T06:52:17.149Z,0.80
2022-09-20T06:54:46.727Z,0.88
2022-09-20T06:57:18.187Z,1.08
2022-09-20T06:59:47.733Z,1.17
2022-09-20T07:02:15.948Z,0.68
2022-09-20T07:04:45.160Z,0.70
2022-09-20T07:07:23.047Z,0.82
2022-09-20T07:09:54.831Z,0.88
2022-09-20T07:12:23.153Z,1.10
2022-09-20T07:14:52.791Z,0.90
2022-09-20T07:17:22.197Z,1.23
2022-09-20T07:19:50.349Z,1.30
2022-09-20T07:22:18.551Z,1.27
2022-09-20T07:24:47.875Z,2.05
2022-09-20T07:27:16.444Z,1.30
2022-09-20T07:29:46.162Z,1.50
2022-09-20T07:32:17.207Z,1.23
2022-09-20T07:34:45.932Z,0.73
2022-09-20T07:37:14.146Z,0.95
2022-09-20T07:39:42.371Z,1.02
2022-09-20T07:42:10.556Z,1.13
2022-09-20T07:44:42.318Z,0.70
2022-09-20T07:47:14.043Z,1.25
2022-09-20T07:49:43.637Z,1.05
2022-09-20T07:52:12.419Z,1.15
2022-09-20T07:54:40.917Z,0.77
2022-09-20T07:57:09.165Z,1.10
2022-09-20T07:59:37.317Z,0.98
2022-09-20T08:02:05.621Z,2.05
2022-09-20T08:04:33.840Z,0.57
2022-09-20T08:07:03.404Z,1.00
2022-09-20T08:09:31.535Z,0.88
2022-09-20T08:11:59.793Z,0.85
2022-09-20T08:14:28.574Z,0.80
2022-09-20T08:16:58.195Z,1.00
2022-09-20T08:19:26.782Z,0.90
2022-09-20T08:21:55.150Z,0.63
2022-09-20T08:24:26.132Z,0.90
2022-09-20T08:26:54.427Z,0.82
2022-09-20T08:29:22.619Z,2.00
2022-09-20T08:31:52.598Z,1.67
2022-09-20T08:34:21.025Z,1.48
2022-09-20T08:36:51.845Z,0.73
2022-09-20T08:42:24.133Z,1.70
2022-09-20T08:44:58.532Z,0.85
2022-09-20T08:47:31.116Z,1.00
2022-09-20T08:50:00.715Z,0.88
2022-09-20T08:52:37.342Z,1.13
2022-09-20T08:55:16.792Z,1.45
2022-09-20T08:57:50.361Z,0.55
2022-09-20T09:00:21.885Z,0.75
2022-09-20T09:02:53.154Z,1.40
2022-09-20T09:05:34.885Z,0.80
2022-09-20T09:08:10.125Z,1.02
2022-09-20T09:10:44.232Z,0.88
2022-09-20T09:13:26.486Z,0.75
2022-09-20T09:16:01.644Z,1.08
2022-09-20T09:18:36.342Z,1.08
2022-09-20T09:21:07.815Z,1.45
2022-09-20T09:23:43.119Z,1.08
2022-09-20T09:26:22.276Z,0.90
2022-09-20T09:29:19.288Z,0.88
2022-09-20T09:31:50.391Z,0.50
2022-09-20T09:34:27.850Z,1.27
2022-09-20T09:36:57.114Z,0.55
2022-09-20T09:39:27.834Z,1.25
2022-09-20T09:41:57.284Z,0.73
2022-09-20T09:44:28.725Z,0.88
2022-09-20T09:46:58.618Z,0.68
2022-09-20T09:49:29.340Z,1.02
2022-09-20T09:52:12.973Z,0.88
2022-09-20T09:54:44.600Z,0.60
2022-09-20T09:57:34.108Z,1.35
2022-09-20T10:00:19.510Z,0.70
2022-09-20T10:03:22.818Z,0.60
2022-09-20T10:06:08.609Z,0.85
2022-09-20T10:08:54.191Z,1.02
2022-09-20T10:11:38.877Z,0.60
2022-09-20T10:14:24.594Z,0.90
2022-09-20T10:17:10.799Z,1.20
2022-09-20T10:19:59.403Z,1.45
2022-09-20T10:22:38.323Z,0.50
2022-09-20T10:25:23.140Z,1.30
2022-09-20T10:28:09.112Z,0.90
2022-09-20T10:30:52.423Z,0.93
2022-09-20T10:33:32.252Z,0.95
2022-09-20T10:36:21.292Z,0.50
2022-09-20T10:38:58.527Z,4.40
2022-09-20T10:42:03.987Z,0.82
2022-09-20T10:44:55.228Z,0.75
2022-09-20T10:47:31.544Z,0.80
2022-09-20T10:50:14.552Z,0.63
2022-09-20T10:55:42.404Z,0.80
2022-09-20T10:58:51.990Z,0.90
2022-09-20T11:01:31.451Z,1.10
2022-09-20T11:04:50.993Z,0.98
2022-09-20T11:07:32.831Z,0.65
2022-09-20T11:10:08.059Z,0.50
2022-09-20T11:12:42.889Z,0.73
2022-09-20T11:15:24.588Z,0.88
2022-09-20T11:18:06.030Z,1.15
2022-09-20T11:20:44.207Z,2.05
2022-09-20T11:23:19.795Z,0.95
2022-09-20T11:25:52.713Z,0.85
2022-09-20T11:28:27.515Z,0.73
2022-09-20T11:31:05.143Z,0.50
2022-09-20T11:33:41.438Z,0.90
2022-09-20T11:36:16.538Z,0.50
2022-09-20T11:38:53.504Z,0.77
2022-09-20T11:41:27.627Z,0.95
2022-09-20T11:44:01.237Z,0.60
2022-09-20T11:46:34.626Z,0.40
2022-09-20T11:49:11.034Z,0.60
2022-09-20T11:52:15.292Z,0.70
2022-09-20T11:55:19.776Z,0.73
2022-09-20T11:58:00.069Z,0.50
2022-09-20T12:00:35.265Z,0.85
2022-09-20T12:03:06.737Z,0.70
2022-09-20T12:05:39.353Z,0.70
2022-09-20T12:08:19.365Z,0.70
2022-09-20T12:11:01.803Z,0.80
2022-09-20T12:13:30.027Z,0.68
2022-09-20T12:16:03.592Z,0.65
2022-09-20T12:19:03.155Z,0.55
2022-09-20T12:21:31.382Z,0.70
2022-09-20T12:24:22.855Z,0.52
2022-09-20T12:27:02.800Z,0.80
2022-09-20T12:30:16.030Z,0.90
2022-09-20T12:32:59.267Z,0.50
2022-09-20T12:36:15.707Z,0.60
2022-09-20T12:39:03.722Z,0.85
2022-09-20T12:41:52.506Z,0.60
2022-09-20T12:44:36.496Z,0.93
2022-09-20T12:47:08.911Z,0.70
2022-09-20T12:50:09.032Z,0.40
2022-09-20T12:52:56.868Z,0.90
2022-09-20T12:55:52.869Z,0.70
2022-09-20T12:58:38.375Z,0.77
2022-09-20T13:01:38.034Z,1.00
2022-09-20T13:04:57.385Z,0.80
2022-09-20T13:07:50.783Z,0.43
2022-09-20T13:10:29.922Z,0.47
2022-09-20T13:13:06.253Z,0.63
2022-09-20T13:15:35.645Z,0.60
2022-09-20T13:18:08.281Z,0.75
2022-09-20T13:23:06.421Z,0.60
2022-09-20T13:25:40.007Z,1.00
2022-09-20T13:28:21.081Z,0.40
2022-09-20T13:30:49.715Z,0.47
2022-09-20T13:33:24.880Z,0.52
2022-09-20T13:35:59.014Z,0.90
2022-09-20T13:38:32.367Z,0.63
2022-09-20T13:41:09.044Z,0.60
2022-09-20T13:43:41.136Z,0.60
2022-09-20T13:46:12.053Z,0.55
2022-09-20T13:48:42.564Z,0.40
2022-09-20T13:51:19.901Z,0.40
2022-09-20T13:53:48.507Z,0.50
2022-09-20T13:56:23.903Z,0.73
2022-09-20T13:58:53.735Z,0.60
2022-09-20T14:01:28.985Z,0.43
2022-09-20T14:04:06.237Z,0.68
2022-09-20T14:06:34.772Z,0.30
2022-09-20T14:09:11.040Z,0.50
2022-09-20T14:11:41.073Z,0.40
2022-09-20T14:14:12.576Z,0.60
2022-09-20T14:16:45.177Z,0.65
2022-09-20T14:21:45.349Z,0.40
2022-09-20T14:24:31.977Z,0.50
2022-09-20T14:27:23.468Z,0.82
2022-09-20T14:29:53.611Z,0.45
2022-09-20T14:32:44.368Z,0.40
2022-09-20T14:35:21.964Z,0.35
2022-09-20T14:37:53.167Z,0.30
2022-09-20T14:40:25.993Z,0.25
2022-09-20T14:42:57.921Z,0.30
2022-09-20T14:45:31.313Z,0.30
2022-09-20T14:48:10.143Z,0.38
2022-09-20T14:50:43.249Z,0.60
2022-09-20T14:56:11.502Z,0.28
2022-09-20T14:59:20.288Z,0.40
2022-09-20T15:02:02.949Z,0.50
2022-09-20T15:04:33.007Z,0.88
2022-09-20T15:07:06.554Z,0.68
2022-09-20T15:09:35.839Z,0.32
2022-09-20T15:12:06.757Z,0.40
2022-09-20T15:14:37.785Z,0.22
2022-09-20T15:17:07.292Z,0.82
2022-09-20T15:19:35.499Z,0.30
2022-09-20T15:22:05.494Z,0.60
2022-09-20T15:24:33.692Z,0.45
2022-09-20T15:27:01.891Z,0.30
2022-09-20T15:29:30.758Z,0.52
2022-09-20T15:31:58.976Z,0.35
2022-09-20T15:34:27.341Z,0.65
2022-09-20T15:36:55.957Z,0.70
2022-09-20T15:39:25.972Z,0.30
2022-09-20T15:41:54.841Z,0.30
2022-09-20T15:44:23.067Z,0.68
2022-09-20T15:46:53.191Z,0.30
2022-09-20T15:49:22.229Z,0.50
2022-09-20T15:51:50.486Z,0.30
2022-09-20T15:54:18.742Z,0.40
2022-09-20T15:56:48.819Z,0.45
2022-09-20T15:59:17.301Z,0.75
2022-09-20T16:01:48.161Z,0.70
2022-09-20T16:04:19.642Z,0.43
2022-09-20T16:06:49.998Z,0.40
2022-09-20T16:09:19.185Z,0.47
2022-09-20T16:11:49.361Z,0.30
2022-09-20T16:14:17.604Z,0.40
2022-09-20T16:16:45.904Z,0.50
2022-09-20T16:19:20.791Z,0.38
2022-09-20T16:21:57.781Z,0.40
2022-09-20T16:24:29.546Z,0.40
2022-09-20T16:27:00.806Z,0.55
2022-09-20T16:29:30.127Z,0.43
2022-09-20T16:32:00.306Z,0.50
2022-09-20T16:34:31.290Z,0.45
2022-09-20T16:37:01.654Z,0.70
2022-09-20T16:39:31.612Z,0.50
2022-09-20T16:42:05.015Z,0.60
2022-09-20T16:44:34.896Z,0.50
2022-09-20T16:47:03.346Z,0.50
2022-09-20T16:49:31.588Z,1.00
2022-09-20T16:51:59.810Z,0.80
2022-09-20T16:54:31.793Z,0.77
2022-09-20T16:57:02.123Z,0.60
2022-09-20T16:59:30.354Z,0.60
2022-09-20T17:01:58.919Z,0.63
2022-09-20T17:04:27.255Z,0.50
2022-09-20T17:06:55.708Z,0.50
2022-09-20T17:09:23.961Z,0.93
2022-09-20T17:11:52.708Z,0.60
2022-09-20T17:14:22.492Z,0.43
2022-09-20T17:16:51.248Z,0.60
2022-09-20T17:19:22.546Z,0.55
2022-09-20T17:21:52.118Z,0.68
2022-09-20T17:24:22.225Z,0.50
2022-09-20T17:26:51.769Z,0.82
2022-09-20T17:29:22.516Z,0.60
2022-09-20T17:31:55.763Z,0.60
2022-09-20T17:34:25.587Z,0.70
2022-09-20T17:36:55.401Z,0.90
2022-09-20T17:39:24.090Z,2.15
2022-09-20T17:41:52.624Z,2.63
2022-09-20T17:44:22.632Z,2.63
2022-09-20T17:46:54.052Z,3.45
2022-09-20T17:49:24.387Z,2.75
2022-09-20T17:51:55.000Z,2.25
2022-09-20T17:54:24.472Z,2.17
2022-09-20T17:56:55.851Z,1.67
2022-09-20T17:59:25.857Z,1.90
2022-09-20T18:01:55.635Z,2.33
2022-09-20T18:04:25.043Z,2.55
2022-09-20T18:06:55.441Z,1.88
2022-09-20T18:09:27.073Z,1.88
2022-09-20T18:11:56.586Z,1.52
2022-09-20T18:14:28.462Z,1.50
2022-09-20T18:17:00.763Z,1.40
2022-09-20T18:19:32.985Z,1.88
2022-09-20T18:22:02.075Z,1.40
2022-09-20T18:24:31.525Z,1.95
2022-09-20T18:27:00.857Z,2.90
2022-09-20T18:29:36.436Z,2.60
2022-09-20T18:32:04.848Z,2.00
2022-09-20T18:34:34.139Z,1.42
2022-09-20T18:37:04.507Z,1.50
2022-09-20T18:39:34.830Z,1.42
2022-09-20T18:42:04.491Z,1.48
2022-09-20T18:44:34.336Z,1.50
2022-09-20T18:47:03.738Z,2.28
2022-09-20T18:49:32.632Z,2.67
2022-09-20T18:52:00.984Z,3.00
2022-09-20T18:54:30.485Z,2.72
2022-09-20T18:56:59.570Z,2.95
2022-09-20T18:59:29.285Z,2.70
2022-09-20T19:02:17.791Z,2.95
2022-09-20T19:05:17.640Z,3.72
2022-09-20T19:08:14.232Z,3.92
2022-09-20T19:10:50.140Z,2.50
2022-09-20T19:13:32.369Z,2.63
2022-09-20T19:16:23.473Z,2.50
2022-09-20T19:19:16.140Z,2.17
2022-09-20T19:21:51.489Z,1.95
2022-09-20T19:24:48.031Z,2.05
2022-09-20T19:27:16.782Z,1.70
2022-09-20T19:29:46.174Z,1.52
2022-09-20T19:32:21.222Z,1.52
2022-09-20T19:34:55.784Z,1.40
2022-09-20T19:37:36.638Z,1.50
2022-09-20T19:40:29.896Z,1.17
2022-09-20T19:45:47.367Z,1.20
2022-09-20T19:48:24.026Z,1.20
2022-09-20T19:50:55.078Z,1.25
2022-09-20T19:53:28.298Z,1.30
2022-09-20T19:56:03.886Z,1.35
2022-09-20T19:58:33.119Z,1.45
2022-09-20T20:01:02.119Z,1.67
2022-09-20T20:03:31.201Z,1.50
2022-09-20T20:06:08.354Z,1.08
2022-09-20T20:08:45.413Z,1.30
2022-09-20T20:11:27.363Z,1.00
2022-09-20T20:14:07.357Z,1.23
2022-09-20T20:16:51.249Z,0.90
2022-09-20T20:19:58.830Z,1.80
2022-09-20T20:23:05.078Z,1.35
2022-09-20T20:25:42.384Z,1.00
2022-09-20T20:28:10.805Z,1.50
2022-09-20T20:30:38.994Z,1.02
2022-09-20T20:33:07.388Z,1.55
2022-09-20T20:35:37.407Z,1.10
2022-09-20T20:38:10.735Z,1.10
2022-09-20T20:40:39.187Z,1.75
2022-09-20T20:43:07.655Z,1.67
2022-09-20T20:45:35.894Z,1.60
2022-09-20T20:48:04.314Z,1.60
2022-09-20T20:50:33.049Z,1.42
2022-09-20T20:53:01.217Z,1.40
2022-09-20T20:55:31.109Z,1.38
2022-09-20T20:57:59.606Z,1.42
2022-09-20T21:00:29.991Z,1.40
2022-09-20T21:02:59.943Z,1.30
2022-09-20T21:05:29.233Z,1.63
2022-09-20T21:07:57.952Z,1.35
2022-09-20T21:10:26.409Z,1.27
2022-09-20T21:12:56.865Z,1.58
2022-09-20T21:15:25.145Z,1.38
2022-09-20T21:17:54.982Z,1.20
2022-09-20T21:20:23.230Z,1.25
2022-09-20T21:22:51.429Z,1.60
2022-09-20T21:25:19.611Z,1.40
2022-09-20T21:27:47.825Z,1.40
2022-09-20T21:30:17.738Z,1.50
2022-09-20T21:32:45.900Z,1.65
2022-09-20T21:35:14.234Z,1.73
2022-09-20T21:37:45.329Z,1.20
2022-09-20T21:40:13.559Z,1.20
2022-09-20T21:42:41.779Z,1.63
2022-09-20T21:45:11.044Z,1.40
2022-09-20T21:47:40.571Z,1.52
2022-09-20T21:50:10.351Z,1.67
2022-09-20T21:52:38.545Z,1.58
2022-09-20T21:55:10.806Z,1.70
2022-09-20T21:57:39.030Z,1.42
2022-09-20T22:00:09.874Z,1.55
2022-09-20T22:02:38.499Z,1.30
2022-09-20T22:05:09.078Z,1.30
2022-09-20T22:07:37.267Z,1.73
2022-09-20T22:10:06.546Z,1.85
2022-09-20T22:12:34.879Z,1.67
2022-09-20T22:15:03.055Z,1.65
2022-09-20T22:17:31.251Z,1.50
2022-09-20T22:19:59.513Z,1.52
2022-09-20T22:22:30.062Z,1.42
2022-09-20T22:24:58.263Z,1.20
2022-09-20T22:27:26.470Z,1.42
2022-09-20T22:29:54.716Z,1.42
2022-09-20T22:32:22.904Z,1.33
2022-09-20T22:34:51.109Z,1.75
2022-09-20T22:37:19.313Z,1.80
2022-09-20T22:39:48.865Z,1.95
2022-09-20T22:42:17.023Z,1.70
2022-09-20T22:44:45.188Z,1.60
2022-09-20T22:47:13.411Z,1.60
2022-09-20T22:49:43.300Z,1.70
2022-09-20T22:52:11.516Z,1.50
2022-09-20T22:54:39.778Z,2.00
2022-09-20T22:57:09.354Z,1.60
2022-09-20T22:59:37.569Z,1.70
2022-09-20T23:02:05.881Z,1.55
2022-09-20T23:04:34.077Z,1.27
2022-09-20T23:07:02.538Z,1.40
2022-09-20T23:09:30.719Z,1.60
2022-09-20T23:11:58.928Z,1.40
2022-09-20T23:14:28.540Z,1.52
2022-09-20T23:16:56.736Z,1.30
2022-09-20T23:19:25.022Z,1.13
2022-09-20T23:21:53.230Z,1.40
2022-09-20T23:24:21.430Z,1.50
2022-09-20T23:26:49.678Z,1.55
2022-09-20T23:29:18.200Z,1.50
2022-09-20T23:31:48.018Z,1.55
2022-09-20T23:34:17.318Z,1.85
2022-09-20T23:36:46.470Z,2.13
2022-09-20T23:39:15.067Z,2.30
2022-09-20T23:41:48.364Z,1.67
2022-09-20T23:44:18.350Z,1.98
2022-09-20T23:46:47.885Z,1.63
2022-09-20T23:49:16.144Z,1.90
2022-09-20T23:51:44.337Z,1.70
2022-09-20T23:54:12.546Z,1.50
2022-09-20T23:56:42.765Z,1.67
2022-09-20T23:59:10.986Z,1.67
